Time,TemperatureF,DewpointF,PressureIn,WindDirection,WindDirectionDegrees,WindSpeedMPH,WindSpeedGustMPH,Humidity,HourlyPrecipIn,Conditions,Clouds,dailyrainin,SoftwareType,DateUTC
2013-09-01 00:00:00,78.4,76.2,30.00,WNW,290,0.0,0.0,93,0.00,,---,0.00,VWS V13.01,2013-09-01 04:00:00,
2013-09-01 00:01:00,75.7,74.0,29.99,NNW,340,0.0,0.0,94,0.00,,---,0.00,VWS V13.01,2013-09-01 04:01:00,
2013-09-01 00:02:00,75.7,74.0,29.99,NNW,340,0.0,0.0,94,0.00,,---,0.00,VWS V13.01,2013-09-01 04:02:00,
2013-09-01 00:04:00,75.7,74.0,29.99,NNW,340,0.0,0.0,94,0.00,,---,0.00,VWS V13.01,2013-09-01 04:04:00,
2013-09-01 00:07:00,75.8,74.1,29.99,NNW,340,0.0,0.0,94,0.00,,---,0.00,VWS V13.01,2013-09-01 04:07:00,
2013-09-01 00:10:00,75.9,74.2,29.98,NNW,340,0.0,0.0,94,0.00,,---,0.00,VWS V13.01,2013-09-01 04:10:00,
2013-09-01 00:15:00,75.8,74.1,29.98,NNW,340,0.0,0.0,94,0.00,,---,0.00,VWS V13.01,2013-09-01 04:15:00,
2013-09-01 00:20:00,75.8,74.1,29.98,NNW,340,0.0,0.0,94,0.00,,---,0.00,VWS V13.01,2013-09-01 04:20:00,
2013-09-01 00:25:00,75.7,74.0,29.98,NNW,340,0.0,0.0,95,0.00,,---,0.00,VWS V13.01,2013-09-01 04:25:00,
2013-09-01 00:30:00,75.6,73.9,29.98,NNW,340,0.0,0.0,95,0.00,,---,0.00,VWS V13.01,2013-09-01 04:30:00,
2013-09-01 00:35:00,75.8,74.2,29.98,NNW,340,0.0,0.0,95,0.00,,---,0.00,VWS V13.01,2013-09-01 04:35:00,
2013-09-01 00:40:00,75.8,74.2,29.98,NNW,340,0.0,0.0,95,0.00,,---,0.00,VWS V13.01,2013-09-01 04:40:00,
2013-09-01 00:45:00,75.7,74.1,29.98,NNW,340,0.0,0.0,95,0.00,,---,0.00,VWS V13.01,2013-09-01 04:45:00,
2013-09-01 00:50:00,75.8,74.3,29.98,NNW,340,0.0,0.0,95,0.00,,---,0.00,VWS V13.01,2013-09-01 04:50:00,
2013-09-01 00:55:00,76.0,74.5,29.98,NNW,340,0.0,0.0,95,0.00,,---,0.00,VWS V13.01,2013-09-01 04:55:00,
2013-09-01 01:00:00,75.9,74.4,29.98,NNW,340,0.0,0.0,95,0.00,,---,0.00,VWS V13.01,2013-09-01 05:00:00,
2013-09-01 01:05:00,75.8,74.3,29.98,NNW,340,0.0,0.0,95,0.00,,---,0.00,VWS V13.01,2013-09-01 05:05:00,
2013-09-01 01:10:00,75.9,74.4,29.98,NNW,340,0.0,0.0,95,0.00,,---,0.00,VWS V13.01,2013-09-01 05:10:00,
2013-09-01 01:16:00,75.8,74.3,29.98,NNW,340,0.0,0.0,95,0.00,,---,0.00,VWS V13.01,2013-09-01 05:16:00,
2013-09-01 01:21:00,75.9,74.4,29.98,NNW,340,0.0,0.0,95,0.00,,---,0.00,VWS V13.01,2013-09-01 05:21:00,
2013-09-01 01:26:00,75.7,74.2,29.98,NNW,340,0.0,0.0,95,0.00,,---,0.00,VWS V13.01,2013-09-01 05:26:00,
2013-09-01 01:31:00,75.7,74.2,29.98,NNW,340,0.0,0.0,95,0.00,,---,0.00,VWS V13.01,2013-09-01 05:31:00,
2013-09-01 01:36:00,75.8,74.3,29.98,NNW,340,0.0,0.0,95,0.00,,---,0.00,VWS V13.01,2013-09-01 05:36:00,
2013-09-01 01:41:00,75.9,74.4,29.98,NNW,340,0.0,0.0,95,0.00,,---,0.00,VWS V13.01,2013-09-01 05:41:00,
2013-09-01 01:46:00,75.9,74.4,29.98,NNW,340,0.0,0.0,95,0.00,,---,0.00,VWS V13.01,2013-09-01 05:46:00,
2013-09-01 01:51:00,75.8,74.3,29.98,NNW,340,0.0,0.0,95,0.00,,---,0.00,VWS V13.01,2013-09-01 05:51:00,
2013-09-01 01:56:00,75.8,74.3,29.98,NNW,340,0.0,0.0,95,0.00,,---,0.00,VWS V13.01,2013-09-01 05:56:00,
2013-09-01 02:01:00,75.5,74.0,29.98,NNW,340,0.0,0.0,95,0.00,,---,0.00,VWS V13.01,2013-09-01 06:01:00,
2013-09-01 02:06:00,75.6,74.1,29.98,NNW,340,0.0,0.0,95,0.00,,---,0.00,VWS V13.01,2013-09-01 06:06:00,
2013-09-01 02:11:00,75.5,74.0,29.98,NNW,340,0.0,0.0,95,0.00,,---,0.00,VWS V13.01,2013-09-01 06:11:00,
2013-09-01 02:16:00,75.5,74.0,29.97,NNW,340,0.0,0.0,95,0.00,,---,0.00,VWS V13.01,2013-09-01 06:16:00,
2013-09-01 02:21:00,75.7,74.2,29.97,NNW,340,0.0,0.0,95,0.00,,---,0.00,VWS V13.01,2013-09-01 06:21:00,
2013-09-01 02:26:00,75.6,74.2,29.97,NNW,340,0.0,0.0,95,0.00,,---,0.00,VWS V13.01,2013-09-01 06:26:00,
2013-09-01 02:31:00,75.4,74.0,29.97,NNW,340,0.0,0.0,95,0.00,,---,0.00,VWS V13.01,2013-09-01 06:31:00,
2013-09-01 02:36:00,75.5,74.1,29.97,NNW,340,0.0,0.0,95,0.00,,---,0.00,VWS V13.01,2013-09-01 06:36:00,
2013-09-01 02:41:00,75.4,74.0,29.97,NNW,340,0.0,0.0,95,0.00,,---,0.00,VWS V13.01,2013-09-01 06:41:00,
2013-09-01 02:46:00,75.3,73.9,29.97,NNW,340,0.0,0.0,95,0.00,,---,0.00,VWS V13.01,2013-09-01 06:46:00,
2013-09-01 02:51:00,75.5,74.1,29.97,NNW,340,0.0,0.0,95,0.00,,---,0.00,VWS V13.01,2013-09-01 06:51:00,
2013-09-01 02:56:00,75.6,74.2,29.97,NNW,340,0.0,0.0,95,0.00,,---,0.00,VWS V13.01,2013-09-01 06:56:00,
2013-09-01 03:01:00,75.6,74.2,29.97,NNW,340,0.0,0.0,95,0.00,,---,0.00,VWS V13.01,2013-09-01 07:01:00,
2013-09-01 03:06:00,75.8,74.4,29.96,NNW,340,0.0,0.0,96,0.00,,---,0.00,VWS V13.01,2013-09-01 07:06:00,
2013-09-01 03:11:00,75.9,74.5,29.96,NNW,340,0.0,0.0,96,0.00,,---,0.00,VWS V13.01,2013-09-01 07:11:00,
2013-09-01 03:16:00,75.8,74.4,29.96,NNW,340,0.0,0.0,96,0.00,,---,0.00,VWS V13.01,2013-09-01 07:16:00,
2013-09-01 03:21:00,75.8,74.4,29.95,NNW,340,0.0,0.0,96,0.00,,---,0.00,VWS V13.01,2013-09-01 07:21:00,
2013-09-01 03:26:00,75.8,74.4,29.96,NNW,340,0.0,0.0,96,0.00,,---,0.00,VWS V13.01,2013-09-01 07:26:00,
2013-09-01 03:31:00,75.8,74.4,29.96,NNW,340,0.0,0.0,96,0.00,,---,0.00,VWS V13.01,2013-09-01 07:31:00,
2013-09-01 03:36:00,75.7,74.3,29.96,NNW,340,0.0,0.0,96,0.00,,---,0.00,VWS V13.01,2013-09-01 07:36:00,
2013-09-01 03:41:00,75.8,74.4,29.96,NNW,340,0.0,0.0,96,0.00,,---,0.00,VWS V13.01,2013-09-01 07:41:00,
2013-09-01 03:46:00,75.8,74.4,29.96,NNW,340,0.0,0.0,96,0.00,,---,0.00,VWS V13.01,2013-09-01 07:46:00,
2013-09-01 03:51:00,75.8,74.5,29.96,NNW,340,0.0,0.0,96,0.00,,---,0.00,VWS V13.01,2013-09-01 07:51:00,
2013-09-01 03:56:00,75.8,74.5,29.96,NNW,340,0.0,0.0,96,0.00,,---,0.00,VWS V13.01,2013-09-01 07:56:00,
2013-09-01 04:01:00,75.8,74.4,29.96,NNW,340,0.0,0.0,96,0.00,,---,0.00,VWS V13.01,2013-09-01 08:01:00,
2013-09-01 04:06:00,75.6,74.2,29.96,NNW,340,0.0,0.0,96,0.00,,---,0.00,VWS V13.01,2013-09-01 08:06:00,
2013-09-01 04:11:00,75.5,74.2,29.95,NNW,340,0.0,0.0,96,0.00,,---,0.00,VWS V13.01,2013-09-01 08:11:00,
2013-09-01 04:16:00,75.7,74.4,29.96,NNW,340,0.0,0.0,96,0.00,,---,0.00,VWS V13.01,2013-09-01 08:16:00,
2013-09-01 04:21:00,75.7,74.4,29.96,NNW,340,0.0,0.0,96,0.00,,---,0.00,VWS V13.01,2013-09-01 08:21:00,
2013-09-01 04:26:00,75.6,74.3,29.95,NNW,340,0.0,0.0,96,0.00,,---,0.00,VWS V13.01,2013-09-01 08:26:00,
2013-09-01 04:31:00,75.5,74.2,29.95,NNW,340,0.0,0.0,96,0.00,,---,0.00,VWS V13.01,2013-09-01 08:31:00,
2013-09-01 04:36:00,75.7,74.4,29.95,NNW,340,0.0,0.0,96,0.00,,---,0.00,VWS V13.01,2013-09-01 08:36:00,
2013-09-01 04:41:00,75.3,74.0,29.95,NNW,340,0.0,0.0,96,0.00,,---,0.00,VWS V13.01,2013-09-01 08:41:00,
2013-09-01 04:46:00,75.2,73.9,29.95,NNW,340,0.0,0.0,96,0.00,,---,0.00,VWS V13.01,2013-09-01 08:46:00,
2013-09-01 04:51:00,75.2,73.9,29.96,NNW,340,0.0,0.0,96,0.00,,---,0.00,VWS V13.01,2013-09-01 08:51:00,
2013-09-01 04:56:00,75.3,74.0,29.96,NNW,340,0.0,0.0,96,0.00,,---,0.00,VWS V13.01,2013-09-01 08:56:00,
2013-09-01 05:01:00,75.2,73.9,29.96,NNW,340,0.0,0.0,96,0.00,,---,0.00,VWS V13.01,2013-09-01 09:01:00,
2013-09-01 05:06:00,75.4,74.1,29.96,NNW,340,0.0,0.0,96,0.00,,---,0.00,VWS V13.01,2013-09-01 09:06:00,
2013-09-01 05:11:00,75.4,74.1,29.96,NNW,340,0.0,0.0,96,0.00,,---,0.00,VWS V13.01,2013-09-01 09:11:00,
2013-09-01 05:16:00,75.2,73.9,29.96,NNW,340,0.0,0.0,96,0.00,,---,0.00,VWS V13.01,2013-09-01 09:16:00,
2013-09-01 05:21:00,75.1,73.8,29.96,NNW,340,0.0,0.0,96,0.00,,---,0.00,VWS V13.01,2013-09-01 09:21:00,
2013-09-01 05:26:00,75.2,73.9,29.96,NNW,340,0.0,0.0,96,0.00,,---,0.00,VWS V13.01,2013-09-01 09:26:00,
2013-09-01 05:31:00,75.1,73.8,29.96,NNW,340,0.0,0.0,96,0.00,,---,0.00,VWS V13.01,2013-09-01 09:31:00,
2013-09-01 05:36:00,75.2,73.9,29.97,NNW,340,0.0,0.0,96,0.00,,---,0.00,VWS V13.01,2013-09-01 09:36:00,
2013-09-01 05:41:00,74.9,73.6,29.97,NNW,340,0.0,0.0,96,0.00,,---,0.00,VWS V13.01,2013-09-01 09:41:00,
2013-09-01 05:46:00,74.8,73.5,29.97,NNW,340,0.0,0.0,96,0.00,,---,0.00,VWS V13.01,2013-09-01 09:46:00,
2013-09-01 05:51:00,74.9,73.6,29.97,NNW,340,0.0,0.0,96,0.00,,---,0.00,VWS V13.01,2013-09-01 09:51:00,
2013-09-01 05:56:00,74.7,73.5,29.97,NNW,340,0.0,0.0,96,0.00,,---,0.00,VWS V13.01,2013-09-01 09:56:00,
2013-09-01 06:01:00,74.8,73.6,29.97,NNW,340,0.0,0.0,96,0.00,,---,0.00,VWS V13.01,2013-09-01 10:01:00,
2013-09-01 06:06:00,74.7,73.5,29.97,NNW,340,0.0,0.0,96,0.00,,---,0.00,VWS V13.01,2013-09-01 10:06:00,
2013-09-01 06:11:00,74.6,73.4,29.97,NNW,340,0.0,0.0,96,0.00,,---,0.00,VWS V13.01,2013-09-01 10:11:00,
2013-09-01 06:16:00,74.8,73.6,29.97,NNW,340,0.0,0.0,96,0.00,,---,0.00,VWS V13.01,2013-09-01 10:16:00,
2013-09-01 06:21:00,74.6,73.4,29.97,NNW,340,0.0,0.0,96,0.00,,---,0.00,VWS V13.01,2013-09-01 10:21:00,
2013-09-01 06:26:00,74.3,73.1,29.97,NNW,340,0.0,0.0,96,0.00,,---,0.00,VWS V13.01,2013-09-01 10:26:00,
2013-09-01 06:31:00,74.2,73.0,29.96,NNW,340,0.0,0.0,96,0.00,,---,0.00,VWS V13.01,2013-09-01 10:31:00,
2013-09-01 06:36:00,74.4,73.2,29.97,NNW,340,0.0,0.0,96,0.00,,---,0.00,VWS V13.01,2013-09-01 10:36:00,
2013-09-01 06:41:00,74.6,73.4,29.96,NNW,340,0.0,0.0,96,0.00,,---,0.00,VWS V13.01,2013-09-01 10:41:00,
2013-09-01 06:46:00,74.5,73.3,29.96,NNW,340,0.0,0.0,96,0.00,,---,0.00,VWS V13.01,2013-09-01 10:46:00,
2013-09-01 06:51:00,74.3,73.1,29.97,NNW,340,0.0,0.0,96,0.00,,---,0.00,VWS V13.01,2013-09-01 10:51:00,
2013-09-01 06:56:00,74.2,73.0,29.97,NNW,340,0.0,0.0,96,0.00,,---,0.00,VWS V13.01,2013-09-01 10:56:00,
2013-09-01 07:01:00,74.3,73.1,29.97,NNW,340,0.0,0.0,96,0.00,,---,0.00,VWS V13.01,2013-09-01 11:01:00,
2013-09-01 07:06:00,74.3,73.1,29.97,NNW,340,0.0,0.0,96,0.00,,---,0.00,VWS V13.01,2013-09-01 11:06:00,
2013-09-01 07:11:00,74.5,73.3,29.97,NNW,340,0.0,0.0,96,0.00,,---,0.00,VWS V13.01,2013-09-01 11:11:00,
2013-09-01 07:16:00,74.4,73.2,29.97,NNW,340,0.0,0.0,96,0.00,,---,0.00,VWS V13.01,2013-09-01 11:16:00,
2013-09-01 07:21:00,74.5,73.3,29.97,NNW,340,0.0,0.0,96,0.00,,---,0.00,VWS V13.01,2013-09-01 11:21:00,
2013-09-01 07:26:00,74.7,73.5,29.97,NNW,340,0.0,0.0,96,0.00,,---,0.00,VWS V13.01,2013-09-01 11:26:00,
2013-09-01 07:31:00,74.7,73.5,29.97,NNW,340,0.0,0.0,96,0.00,,---,0.00,VWS V13.01,2013-09-01 11:31:00,
2013-09-01 07:36:00,74.7,73.5,29.97,NNW,340,0.0,0.0,96,0.00,,---,0.00,VWS V13.01,2013-09-01 11:36:00,
2013-09-01 07:41:00,75.0,73.8,29.98,NNW,340,0.0,0.0,96,0.00,,---,0.00,VWS V13.01,2013-09-01 11:41:00,
2013-09-01 07:46:00,75.3,74.2,29.97,NNW,340,0.0,0.0,96,0.00,,---,0.00,VWS V13.01,2013-09-01 11:46:00,
2013-09-01 07:51:00,75.8,74.6,29.97,NNW,340,0.0,0.0,96,0.00,,---,0.00,VWS V13.01,2013-09-01 11:51:00,
2013-09-01 07:56:00,76.1,74.9,29.97,NNW,340,0.0,0.0,96,0.00,,---,0.00,VWS V13.01,2013-09-01 11:56:00,
2013-09-01 08:01:00,76.3,75.1,29.97,NNW,340,0.0,0.0,96,0.00,,---,0.00,VWS V13.01,2013-09-01 12:01:00,
2013-09-01 08:06:00,76.6,75.4,29.97,NNW,340,0.0,0.0,96,0.00,,---,0.00,VWS V13.01,2013-09-01 12:06:00,
2013-09-01 08:11:00,76.8,75.6,29.97,NNW,340,0.0,0.0,96,0.00,,---,0.00,VWS V13.01,2013-09-01 12:11:00,
2013-09-01 08:16:00,77.2,76.0,29.98,NNW,340,0.0,0.0,96,0.00,,---,0.00,VWS V13.01,2013-09-01 12:16:00,
2013-09-01 08:21:00,77.7,76.5,29.98,NNW,340,0.0,0.0,96,0.00,,---,0.00,VWS V13.01,2013-09-01 12:21:00,
2013-09-01 08:26:00,77.7,76.4,29.98,NNW,340,0.0,0.0,96,0.00,,---,0.00,VWS V13.01,2013-09-01 12:26:00,
2013-09-01 08:31:00,78.0,76.7,29.98,NNW,340,0.0,0.0,96,0.00,,---,0.00,VWS V13.01,2013-09-01 12:31:00,
2013-09-01 08:36:00,78.3,77.0,29.98,NNW,340,0.0,0.0,96,0.00,,---,0.00,VWS V13.01,2013-09-01 12:36:00,
2013-09-01 08:41:00,78.8,77.5,29.98,NNW,340,0.0,0.0,96,0.00,,---,0.00,VWS V13.01,2013-09-01 12:41:00,
2013-09-01 08:46:00,78.9,77.6,29.98,NNE,30,0.0,0.0,96,0.00,,---,0.00,VWS V13.01,2013-09-01 12:46:00,
2013-09-01 08:51:00,79.1,77.7,29.98,NNE,30,0.0,0.0,96,0.00,,---,0.00,VWS V13.01,2013-09-01 12:51:00,
2013-09-01 08:56:00,79.3,77.9,29.98,NNE,30,0.0,0.0,96,0.00,,---,0.00,VWS V13.01,2013-09-01 12:56:00,
2013-09-01 09:01:00,79.4,78.0,29.98,NNE,30,0.0,0.0,95,0.00,,---,0.00,VWS V13.01,2013-09-01 13:01:00,
2013-09-01 09:06:00,79.8,78.3,29.98,NNE,30,0.0,0.0,95,0.00,,---,0.00,VWS V13.01,2013-09-01 13:06:00,
2013-09-01 09:11:00,79.8,78.3,29.98,North,11,0.0,1.5,95,0.00,,---,0.00,VWS V13.01,2013-09-01 13:11:00,
2013-09-01 09:16:00,80.2,78.5,29.98,ENE,62,0.0,0.0,95,0.00,,---,0.00,VWS V13.01,2013-09-01 13:16:00,
2013-09-01 09:21:00,80.4,78.7,29.98,NE,46,0.0,0.0,94,0.00,,---,0.00,VWS V13.01,2013-09-01 13:21:00,
2013-09-01 09:26:00,80.6,78.7,29.98,NE,46,0.0,0.0,94,0.00,,---,0.00,VWS V13.01,2013-09-01 13:26:00,
2013-09-01 09:31:00,81.2,78.9,29.98,NE,46,0.0,0.3,93,0.00,,---,0.00,VWS V13.01,2013-09-01 13:31:00,
2013-09-01 09:36:00,81.3,78.7,29.98,NE,46,0.0,0.0,92,0.00,,---,0.00,VWS V13.01,2013-09-01 13:36:00,
2013-09-01 09:41:00,81.7,78.6,29.98,NE,46,0.0,0.0,90,0.00,,---,0.00,VWS V13.01,2013-09-01 13:41:00,
2013-09-01 09:46:00,82.0,78.4,29.98,NE,46,0.0,0.0,89,0.00,,---,0.00,VWS V13.01,2013-09-01 13:46:00,
2013-09-01 09:51:00,82.8,78.7,29.98,NE,45,0.0,0.0,88,0.00,,---,0.00,VWS V13.01,2013-09-01 13:51:00,
2013-09-01 09:56:00,83.4,78.6,29.99,ENE,60,0.6,2.0,86,0.00,,---,0.00,VWS V13.01,2013-09-01 13:56:00,
2013-09-01 10:01:00,84.3,78.8,29.99,ESE,111,0.7,1.7,84,0.00,,---,0.00,VWS V13.01,2013-09-01 14:01:00,
2013-09-01 10:06:00,84.6,78.3,29.99,NE,51,0.0,0.0,82,0.00,,---,0.00,VWS V13.01,2013-09-01 14:06:00,
2013-09-01 10:11:00,84.9,76.7,30.00,SE,143,0.9,3.0,76,0.00,,---,0.00,VWS V13.01,2013-09-01 14:11:00,
2013-09-01 10:16:00,85.2,77.4,30.00,SW,236,0.4,1.1,78,0.00,,---,0.00,VWS V13.01,2013-09-01 14:16:00,
2013-09-01 10:21:00,85.5,77.1,30.00,NNE,15,1.1,1.7,76,0.00,,---,0.00,VWS V13.01,2013-09-01 14:21:00,
2013-09-01 10:26:00,85.6,76.4,30.00,SE,127,0.8,1.1,74,0.00,,---,0.00,VWS V13.01,2013-09-01 14:26:00,
2013-09-01 10:31:00,86.0,76.8,30.00,ENE,72,1.7,2.8,74,0.00,,---,0.00,VWS V13.01,2013-09-01 14:31:00,
2013-09-01 10:36:00,86.2,75.9,30.01,ESE,111,5.1,6.6,72,0.00,,---,0.00,VWS V13.01,2013-09-01 14:36:00,
2013-09-01 10:41:00,85.9,75.8,30.01,SE,124,5.2,6.8,72,0.00,,---,0.00,VWS V13.01,2013-09-01 14:41:00,
2013-09-01 10:46:00,86.0,76.5,30.00,SSE,160,1.7,4.5,73,0.00,,---,0.00,VWS V13.01,2013-09-01 14:46:00,
2013-09-01 10:51:00,86.3,76.1,30.00,SSW,205,0.4,3.1,72,0.00,,---,0.00,VWS V13.01,2013-09-01 14:51:00,
2013-09-01 10:56:00,87.0,76.7,30.00,ESE,114,1.5,3.4,72,0.00,,---,0.00,VWS V13.01,2013-09-01 14:56:00,
2013-09-01 11:01:00,87.5,76.3,30.00,SE,132,3.9,5.0,69,0.00,,---,0.00,VWS V13.01,2013-09-01 15:01:00,
2013-09-01 11:06:00,87.5,76.5,30.00,NE,55,0.6,3.0,70,0.00,,---,0.00,VWS V13.01,2013-09-01 15:06:00,
2013-09-01 11:11:00,87.3,76.6,30.00,ESE,117,1.6,3.6,71,0.00,,---,0.00,VWS V13.01,2013-09-01 15:11:00,
2013-09-01 11:16:00,87.4,76.6,30.01,NNE,21,1.4,3.9,70,0.00,,---,0.00,VWS V13.01,2013-09-01 15:16:00,
2013-09-01 11:21:00,87.5,75.9,30.00,SSW,195,4.5,5.4,69,0.00,,---,0.00,VWS V13.01,2013-09-01 15:21:00,
2013-09-01 11:26:00,87.6,76.0,30.00,SE,141,2.9,5.3,69,0.00,,---,0.00,VWS V13.01,2013-09-01 15:26:00,
2013-09-01 11:31:00,87.7,76.3,30.00,SE,146,2.6,2.6,69,0.00,,---,0.00,VWS V13.01,2013-09-01 15:31:00,
2013-09-01 11:36:00,87.8,75.8,30.00,SSE,165,3.2,6.2,68,0.00,,---,0.00,VWS V13.01,2013-09-01 15:36:00,
2013-09-01 11:41:00,87.7,75.5,30.00,SE,135,4.4,5.8,67,0.00,,---,0.00,VWS V13.01,2013-09-01 15:41:00,
2013-09-01 11:46:00,87.9,75.4,30.00,SSW,201,1.8,5.5,67,0.00,,---,0.00,VWS V13.01,2013-09-01 15:46:00,
2013-09-01 11:51:00,87.9,75.8,30.00,South,179,1.1,5.2,68,0.00,,---,0.00,VWS V13.01,2013-09-01 15:51:00,
2013-09-01 11:56:00,88.1,75.2,30.00,SSE,159,2.2,4.2,66,0.00,,---,0.00,VWS V13.01,2013-09-01 15:56:00,
2013-09-01 12:01:00,87.9,74.9,30.00,SE,135,3.9,6.4,66,0.00,,---,0.00,VWS V13.01,2013-09-01 16:01:00,
2013-09-01 12:07:00,87.5,75.3,30.00,East,97,4.1,5.8,67,0.00,,---,0.00,VWS V13.01,2013-09-01 16:07:00,
2013-09-01 12:12:00,87.0,75.6,30.00,ESE,118,3.1,7.0,69,0.00,,---,0.00,VWS V13.01,2013-09-01 16:12:00,
2013-09-01 12:17:00,86.8,75.8,30.00,SE,125,4.0,6.1,70,0.00,,---,0.00,VWS V13.01,2013-09-01 16:17:00,
2013-09-01 12:22:00,86.6,75.8,30.00,SE,132,4.2,5.2,70,0.00,,---,0.00,VWS V13.01,2013-09-01 16:22:00,
2013-09-01 12:27:00,86.6,76.0,30.00,East,100,2.1,4.1,71,0.00,,---,0.00,VWS V13.01,2013-09-01 16:27:00,
2013-09-01 12:32:00,86.5,75.8,30.01,ENE,66,1.9,3.9,70,0.00,,---,0.00,VWS V13.01,2013-09-01 16:32:00,
2013-09-01 12:37:00,86.3,75.8,30.01,South,169,3.5,3.7,71,0.00,,---,0.00,VWS V13.01,2013-09-01 16:37:00,
2013-09-01 12:42:00,86.3,75.8,30.00,SE,124,3.4,5.2,71,0.00,,---,0.00,VWS V13.01,2013-09-01 16:42:00,
2013-09-01 12:47:00,86.3,75.4,30.01,East,101,0.0,0.4,70,0.00,,---,0.00,VWS V13.01,2013-09-01 16:47:00,
2013-09-01 12:52:00,85.7,76.0,30.01,NNW,333,5.6,8.6,73,0.00,,---,0.00,VWS V13.01,2013-09-01 16:52:00,
2013-09-01 12:57:00,84.3,76.1,30.00,North,349,2.7,3.6,76,0.00,,---,0.00,VWS V13.01,2013-09-01 16:57:00,
2013-09-01 13:02:00,83.1,75.7,30.00,North,7,1.5,3.4,78,0.00,,---,0.00,VWS V13.01,2013-09-01 17:02:00,
2013-09-01 13:07:00,82.7,75.7,30.00,NW,322,1.5,3.1,79,0.00,,---,0.00,VWS V13.01,2013-09-01 17:07:00,
2013-09-01 13:12:00,82.4,74.8,30.00,NW,319,1.1,3.2,78,0.00,,---,0.00,VWS V13.01,2013-09-01 17:12:00,
2013-09-01 13:17:00,82.1,74.1,30.00,WNW,287,2.3,3.9,77,0.00,,---,0.00,VWS V13.01,2013-09-01 17:17:00,
2013-09-01 13:22:00,81.7,73.6,30.00,NE,48,1.9,4.5,77,0.00,,---,0.00,VWS V13.01,2013-09-01 17:22:00,
2013-09-01 13:27:00,81.6,73.8,30.00,NNW,330,2.2,2.6,77,0.00,,---,0.00,VWS V13.01,2013-09-01 17:27:00,
2013-09-01 13:32:00,81.5,73.8,30.00,North,7,0.8,1.2,78,0.00,,---,0.00,VWS V13.01,2013-09-01 17:32:00,
2013-09-01 13:37:00,81.5,74.0,30.00,NNE,30,1.7,2.1,78,0.00,,---,0.00,VWS V13.01,2013-09-01 17:37:00,
2013-09-01 13:42:00,81.9,74.3,30.00,North,353,3.2,4.0,78,0.00,,---,0.00,VWS V13.01,2013-09-01 17:42:00,
2013-09-01 13:47:00,82.0,73.8,29.99,North,352,1.6,3.2,76,0.00,,---,0.00,VWS V13.01,2013-09-01 17:47:00,
2013-09-01 13:52:00,82.5,73.8,29.99,WNW,290,1.3,3.2,75,0.00,,---,0.00,VWS V13.01,2013-09-01 17:52:00,
2013-09-01 13:57:00,83.0,74.5,29.98,NE,35,0.0,0.0,76,0.00,,---,0.00,VWS V13.01,2013-09-01 17:57:00,
2013-09-01 14:02:00,83.6,74.8,29.98,NE,56,1.1,1.5,75,0.00,,---,0.00,VWS V13.01,2013-09-01 18:02:00,
2013-09-01 14:07:00,84.1,75.3,29.98,North,6,0.0,0.9,75,0.00,,---,0.00,VWS V13.01,2013-09-01 18:07:00,
2013-09-01 14:12:00,84.5,75.4,29.97,East,96,1.2,1.3,74,0.00,,---,0.00,VWS V13.01,2013-09-01 18:12:00,
2013-09-01 14:17:00,84.7,75.3,29.97,SE,141,2.9,2.9,73,0.00,,---,0.00,VWS V13.01,2013-09-01 18:17:00,
2013-09-01 14:22:00,85.0,75.5,29.97,ESE,112,3.2,4.4,73,0.00,,---,0.00,VWS V13.01,2013-09-01 18:22:00,
2013-09-01 14:27:00,85.3,75.6,29.97,SE,143,1.4,1.6,73,0.00,,---,0.00,VWS V13.01,2013-09-01 18:27:00,
2013-09-01 14:32:00,85.5,75.8,29.97,SE,131,1.3,2.1,73,0.00,,---,0.00,VWS V13.01,2013-09-01 18:32:00,
2013-09-01 14:37:00,85.9,76.0,29.97,East,97,1.8,3.2,72,0.00,,---,0.00,VWS V13.01,2013-09-01 18:37:00,
2013-09-01 14:42:00,86.1,75.9,29.97,SE,135,5.8,5.8,72,0.00,,---,0.00,VWS V13.01,2013-09-01 18:42:00,
2013-09-01 14:47:00,86.5,76.0,29.97,SSW,212,1.2,1.9,71,0.00,,---,0.00,VWS V13.01,2013-09-01 18:47:00,
2013-09-01 14:53:00,87.1,75.8,29.97,SSE,149,3.8,5.7,69,0.00,,---,0.00,VWS V13.01,2013-09-01 18:53:00,
2013-09-01 14:58:00,87.5,76.1,29.97,ESE,122,6.0,11.9,69,0.00,,---,0.00,VWS V13.01,2013-09-01 18:58:00,
2013-09-01 15:03:00,87.4,76.4,29.97,SE,132,2.5,6.5,70,0.00,,---,0.00,VWS V13.01,2013-09-01 19:03:00,
2013-09-01 15:08:00,87.8,76.2,29.97,SSE,156,3.3,6.5,69,0.00,,---,0.00,VWS V13.01,2013-09-01 19:08:00,
2013-09-01 15:13:00,88.0,75.8,29.97,South,172,5.6,6.7,67,0.00,,---,0.00,VWS V13.01,2013-09-01 19:13:00,
2013-09-01 15:18:00,88.4,75.7,29.97,SSW,200,3.2,5.2,66,0.00,,---,0.00,VWS V13.01,2013-09-01 19:18:00,
2013-09-01 15:23:00,88.6,76.4,29.97,South,180,2.1,4.7,67,0.00,,---,0.00,VWS V13.01,2013-09-01 19:23:00,
2013-09-01 15:28:00,88.0,76.2,29.96,SE,127,3.9,5.5,68,0.00,,---,0.00,VWS V13.01,2013-09-01 19:28:00,
2013-09-01 15:33:00,87.7,76.2,29.96,SSW,193,2.8,4.6,69,0.00,,---,0.00,VWS V13.01,2013-09-01 19:33:00,
2013-09-01 15:38:00,87.5,76.0,29.96,SSE,150,3.0,4.3,69,0.00,,---,0.00,VWS V13.01,2013-09-01 19:38:00,
2013-09-01 15:43:00,87.3,76.1,29.96,South,172,5.8,5.8,69,0.00,,---,0.00,VWS V13.01,2013-09-01 19:43:00,
2013-09-01 15:48:00,87.2,76.4,29.96,SW,217,3.3,4.9,70,0.00,,---,0.00,VWS V13.01,2013-09-01 19:48:00,
2013-09-01 15:53:00,86.5,78.4,29.96,South,169,7.1,9.8,77,0.03,,---,0.03,VWS V13.01,2013-09-01 19:53:00,
2013-09-01 15:58:00,83.4,71.3,29.97,East,101,4.5,8.0,67,0.03,,---,0.03,VWS V13.01,2013-09-01 19:58:00,
2013-09-01 16:03:00,82.4,72.8,29.97,SSE,165,3.3,3.8,73,0.04,,---,0.04,VWS V13.01,2013-09-01 20:03:00,
2013-09-01 16:08:00,81.7,74.1,29.97,South,174,6.2,6.5,78,0.06,,---,0.06,VWS V13.01,2013-09-01 20:08:00,
2013-09-01 16:13:00,81.4,75.1,29.96,SE,143,0.0,0.6,81,0.07,,---,0.07,VWS V13.01,2013-09-01 20:13:00,
2013-09-01 16:18:00,81.2,75.8,29.97,ESE,114,0.9,0.9,84,0.07,,---,0.07,VWS V13.01,2013-09-01 20:18:00,
2013-09-01 16:23:00,81.2,75.9,29.96,SE,124,0.0,0.0,84,0.07,,---,0.07,VWS V13.01,2013-09-01 20:23:00,
2013-09-01 16:28:00,81.3,76.3,29.96,SE,124,0.0,0.0,85,0.07,,---,0.07,VWS V13.01,2013-09-01 20:28:00,
2013-09-01 16:33:00,81.2,76.1,29.96,SE,124,0.0,0.0,84,0.07,,---,0.07,VWS V13.01,2013-09-01 20:33:00,
2013-09-01 16:38:00,81.4,76.5,29.96,SE,124,0.0,0.0,85,0.07,,---,0.07,VWS V13.01,2013-09-01 20:38:00,
2013-09-01 16:43:00,81.5,76.5,29.96,SE,124,0.0,0.0,85,0.07,,---,0.07,VWS V13.01,2013-09-01 20:43:00,
2013-09-01 16:48:00,81.5,76.3,29.95,SW,217,2.5,3.6,84,0.07,,---,0.07,VWS V13.01,2013-09-01 20:48:00,
2013-09-01 16:53:00,81.5,76.0,29.95,SE,145,2.5,2.9,84,0.04,,---,0.07,VWS V13.01,2013-09-01 20:53:00,
2013-09-01 16:58:00,81.8,76.3,29.94,South,169,0.0,0.0,83,0.04,,---,0.07,VWS V13.01,2013-09-01 20:58:00,
2013-09-01 17:03:00,81.9,76.2,29.94,SE,129,0.0,0.0,83,0.03,,---,0.07,VWS V13.01,2013-09-01 21:03:00,
2013-09-01 17:08:00,82.0,76.4,29.94,SE,129,0.0,0.0,83,0.01,,---,0.07,VWS V13.01,2013-09-01 21:08:00,
2013-09-01 17:14:00,82.2,76.6,29.93,SE,129,0.0,0.0,83,0.00,,---,0.07,VWS V13.01,2013-09-01 21:14:00,
2013-09-01 17:19:00,82.3,76.8,29.93,SSE,156,0.0,0.0,84,0.00,,---,0.07,VWS V13.01,2013-09-01 21:19:00,
2013-09-01 17:24:00,82.2,76.8,29.92,SSE,162,0.0,0.9,84,0.00,,---,0.07,VWS V13.01,2013-09-01 21:24:00,
2013-09-01 17:29:00,82.4,77.1,29.92,SSE,155,0.0,0.0,84,0.00,,---,0.07,VWS V13.01,2013-09-01 21:29:00,
2013-09-01 17:34:00,82.7,77.5,29.92,SSE,155,0.0,0.0,84,0.00,,---,0.07,VWS V13.01,2013-09-01 21:34:00,
2013-09-01 17:39:00,82.8,77.8,29.93,SSE,155,0.0,0.0,85,0.00,,---,0.07,VWS V13.01,2013-09-01 21:39:00,
2013-09-01 17:44:00,83.3,78.0,29.93,South,184,1.6,2.5,84,0.00,,---,0.07,VWS V13.01,2013-09-01 21:44:00,
2013-09-01 17:49:00,83.3,77.8,29.93,SW,226,3.0,4.0,84,0.00,,---,0.07,VWS V13.01,2013-09-01 21:49:00,
2013-09-01 17:54:00,83.5,77.8,29.93,SSW,198,0.0,1.6,83,0.00,,---,0.07,VWS V13.01,2013-09-01 21:54:00,
2013-09-01 17:59:00,83.3,77.4,29.93,SSW,201,0.0,0.0,82,0.00,,---,0.07,VWS V13.01,2013-09-01 21:59:00,
2013-09-01 18:04:00,83.5,77.6,29.93,SSW,201,0.0,0.0,82,0.00,,---,0.07,VWS V13.01,2013-09-01 22:04:00,
2013-09-01 18:09:00,83.5,77.4,29.93,SSE,165,0.0,0.0,82,0.00,,---,0.07,VWS V13.01,2013-09-01 22:09:00,
2013-09-01 18:14:00,83.7,77.2,29.94,SSE,153,3.5,4.2,81,0.00,,---,0.07,VWS V13.01,2013-09-01 22:14:00,
2013-09-01 18:19:00,83.5,77.1,29.94,SSW,194,0.7,3.2,81,0.00,,---,0.07,VWS V13.01,2013-09-01 22:19:00,
2013-09-01 18:24:00,83.7,77.2,29.94,South,190,0.0,0.0,81,0.00,,---,0.07,VWS V13.01,2013-09-01 22:24:00,
2013-09-01 18:29:00,83.7,77.1,29.94,SE,135,0.0,0.0,81,0.00,,---,0.07,VWS V13.01,2013-09-01 22:29:00,
2013-09-01 18:34:00,83.8,77.1,29.94,SE,145,1.4,2.0,80,0.00,,---,0.07,VWS V13.01,2013-09-01 22:34:00,
2013-09-01 18:39:00,84.0,77.0,29.94,SSE,153,0.7,1.4,80,0.00,,---,0.07,VWS V13.01,2013-09-01 22:39:00,
2013-09-01 18:44:00,83.8,76.9,29.94,SSW,195,0.0,0.0,80,0.00,,---,0.07,VWS V13.01,2013-09-01 22:44:00,
2013-09-01 18:49:00,83.5,76.5,29.94,SSE,167,1.1,1.1,80,0.00,,---,0.07,VWS V13.01,2013-09-01 22:49:00,
2013-09-01 18:54:00,83.5,76.7,29.94,SE,125,0.0,0.0,80,0.00,,---,0.07,VWS V13.01,2013-09-01 22:54:00,
2013-09-01 18:59:00,83.7,76.8,29.94,SE,125,0.0,0.0,80,0.00,,---,0.07,VWS V13.01,2013-09-01 22:59:00,
2013-09-01 19:04:00,83.7,76.6,29.94,South,179,0.0,0.0,79,0.00,,---,0.07,VWS V13.01,2013-09-01 23:04:00,
2013-09-01 19:09:00,83.4,76.4,29.94,SE,141,0.0,0.0,80,0.00,,---,0.07,VWS V13.01,2013-09-01 23:09:00,
2013-09-01 19:14:00,83.6,76.8,29.94,ESE,121,0.0,0.0,80,0.00,,---,0.07,VWS V13.01,2013-09-01 23:14:00,
2013-09-01 19:19:00,83.4,76.6,29.95,ESE,121,0.0,0.0,80,0.00,,---,0.07,VWS V13.01,2013-09-01 23:19:00,
2013-09-01 19:25:00,83.4,76.5,29.95,SE,125,0.0,0.0,80,0.00,,---,0.07,VWS V13.01,2013-09-01 23:25:00,
2013-09-01 19:30:00,83.4,76.3,29.94,ESE,115,0.0,0.0,79,0.00,,---,0.07,VWS V13.01,2013-09-01 23:30:00,
2013-09-01 19:35:00,83.2,76.2,29.95,South,172,0.0,0.0,80,0.00,,---,0.07,VWS V13.01,2013-09-01 23:35:00,
2013-09-01 19:40:00,83.1,76.1,29.95,South,172,0.0,0.0,80,0.00,,---,0.07,VWS V13.01,2013-09-01 23:40:00,
2013-09-01 19:45:00,82.9,76.1,29.95,South,172,0.0,0.0,80,0.00,,---,0.07,VWS V13.01,2013-09-01 23:45:00,
2013-09-01 19:50:00,83.0,76.3,29.95,South,172,0.0,0.0,80,0.00,,---,0.07,VWS V13.01,2013-09-01 23:50:00,
2013-09-01 19:55:00,82.5,75.9,29.95,South,172,0.0,0.0,81,0.00,,---,0.07,VWS V13.01,2013-09-01 23:55:00,
2013-09-01 20:00:00,82.4,76.1,29.95,South,172,0.0,0.0,81,0.00,,---,0.07,VWS V13.01,2013-09-02 00:00:00,
2013-09-01 20:05:00,82.2,76.1,29.95,South,172,0.0,0.0,82,0.00,,---,0.07,VWS V13.01,2013-09-02 00:05:00,
2013-09-01 20:10:00,82.0,76.0,29.95,South,172,0.0,0.0,82,0.00,,---,0.07,VWS V13.01,2013-09-02 00:10:00,
2013-09-01 20:15:00,81.9,76.0,29.95,South,172,0.0,0.0,82,0.00,,---,0.07,VWS V13.01,2013-09-02 00:15:00,
2013-09-01 20:20:00,81.4,75.6,29.95,South,172,0.0,0.0,83,0.00,,---,0.07,VWS V13.01,2013-09-02 00:20:00,
2013-09-01 20:25:00,81.4,75.7,29.95,South,172,0.0,0.0,83,0.00,,---,0.07,VWS V13.01,2013-09-02 00:25:00,
2013-09-01 20:30:00,81.4,75.8,29.95,South,172,0.0,0.0,83,0.00,,---,0.07,VWS V13.01,2013-09-02 00:30:00,
2013-09-01 20:35:00,81.4,76.0,29.95,South,172,0.0,0.0,84,0.00,,---,0.07,VWS V13.01,2013-09-02 00:35:00,
2013-09-01 20:40:00,81.4,76.0,29.95,South,172,0.0,0.0,84,0.00,,---,0.07,VWS V13.01,2013-09-02 00:40:00,
2013-09-01 20:45:00,81.2,76.1,29.96,South,172,0.0,0.0,84,0.00,,---,0.07,VWS V13.01,2013-09-02 00:45:00,
2013-09-01 20:50:00,81.2,76.2,29.96,ESE,120,0.0,0.0,85,0.00,,---,0.07,VWS V13.01,2013-09-02 00:50:00,
2013-09-01 20:55:00,81.3,76.5,29.96,ESE,120,0.0,0.0,85,0.00,,---,0.07,VWS V13.01,2013-09-02 00:55:00,
2013-09-01 21:00:00,81.1,76.4,29.97,ESE,120,0.0,0.0,86,0.00,,---,0.07,VWS V13.01,2013-09-02 01:00:00,
2013-09-01 21:05:00,81.0,76.5,29.97,ESE,120,0.0,0.0,86,0.00,,---,0.07,VWS V13.01,2013-09-02 01:05:00,
2013-09-01 21:10:00,81.0,76.6,29.97,ESE,120,0.0,0.0,87,0.00,,---,0.07,VWS V13.01,2013-09-02 01:10:00,
2013-09-01 21:15:00,80.9,76.8,29.97,ESE,120,0.0,0.0,87,0.00,,---,0.07,VWS V13.01,2013-09-02 01:15:00,
2013-09-01 21:20:00,80.6,76.6,29.97,South,173,0.0,0.0,88,0.00,,---,0.07,VWS V13.01,2013-09-02 01:20:00,
2013-09-01 21:25:00,80.6,76.7,29.97,South,173,0.0,0.0,88,0.00,,---,0.07,VWS V13.01,2013-09-02 01:25:00,
2013-09-01 21:30:00,80.4,76.5,29.98,South,173,0.0,0.0,88,0.00,,---,0.07,VWS V13.01,2013-09-02 01:30:00,
2013-09-01 21:36:00,80.3,76.6,29.98,South,173,0.0,0.0,88,0.00,,---,0.07,VWS V13.01,2013-09-02 01:36:00,
2013-09-01 21:41:00,80.5,76.9,29.98,SW,219,0.0,0.0,89,0.00,,---,0.07,VWS V13.01,2013-09-02 01:41:00,
2013-09-01 21:46:00,80.5,76.9,29.98,SW,219,0.0,0.0,89,0.00,,---,0.07,VWS V13.01,2013-09-02 01:46:00,
2013-09-01 21:51:00,80.4,76.9,29.98,SW,219,0.0,0.0,89,0.00,,---,0.07,VWS V13.01,2013-09-02 01:51:00,
2013-09-01 21:56:00,80.2,76.8,29.99,SW,219,0.0,0.0,89,0.00,,---,0.07,VWS V13.01,2013-09-02 01:56:00,
2013-09-01 22:01:00,80.2,76.9,29.99,West,259,1.4,3.0,90,0.00,,---,0.07,VWS V13.01,2013-09-02 02:01:00,
2013-09-01 22:06:00,80.2,76.9,29.99,WNW,290,0.0,0.0,90,0.00,,---,0.07,VWS V13.01,2013-09-02 02:06:00,
2013-09-01 22:11:00,80.0,76.8,30.00,WNW,290,0.0,0.0,90,0.00,,---,0.07,VWS V13.01,2013-09-02 02:11:00,
2013-09-01 22:16:00,79.9,76.7,30.00,WNW,290,0.0,0.0,90,0.00,,---,0.07,VWS V13.01,2013-09-02 02:16:00,
2013-09-01 22:21:00,79.9,76.8,30.00,WNW,290,0.0,0.0,90,0.00,,---,0.07,VWS V13.01,2013-09-02 02:21:00,
2013-09-01 22:26:00,79.8,76.7,30.00,WNW,290,0.0,0.0,90,0.00,,---,0.07,VWS V13.01,2013-09-02 02:26:00,
2013-09-01 22:31:00,79.8,76.8,30.00,WNW,290,0.0,0.0,91,0.00,,---,0.07,VWS V13.01,2013-09-02 02:31:00,
2013-09-01 22:36:00,79.5,76.6,30.00,WNW,290,0.0,0.0,91,0.00,,---,0.07,VWS V13.01,2013-09-02 02:36:00,
2013-09-01 22:41:00,79.7,76.8,30.00,WNW,290,0.0,0.0,91,0.00,,---,0.07,VWS V13.01,2013-09-02 02:41:00,
2013-09-01 22:47:00,79.4,76.6,30.01,WNW,290,0.0,0.0,91,0.00,,---,0.07,VWS V13.01,2013-09-02 02:47:00,
2013-09-01 22:52:00,79.2,76.5,30.00,WNW,290,0.0,0.0,91,0.00,,---,0.07,VWS V13.01,2013-09-02 02:52:00,
2013-09-01 22:57:00,79.1,76.4,30.01,WNW,290,0.0,0.0,92,0.00,,---,0.07,VWS V13.01,2013-09-02 02:57:00,
2013-09-01 23:02:00,79.0,76.4,30.00,WNW,290,0.0,0.0,92,0.00,,---,0.07,VWS V13.01,2013-09-02 03:02:00,
2013-09-01 23:07:00,79.0,76.5,30.00,WNW,290,0.0,0.0,92,0.00,,---,0.07,VWS V13.01,2013-09-02 03:07:00,
2013-09-01 23:12:00,78.9,76.4,30.00,WNW,290,0.0,0.0,92,0.00,,---,0.07,VWS V13.01,2013-09-02 03:12:00,
2013-09-01 23:17:00,78.8,76.4,30.00,WNW,290,0.0,0.0,92,0.00,,---,0.07,VWS V13.01,2013-09-02 03:17:00,
2013-09-01 23:22:00,78.8,76.4,30.00,WNW,290,0.0,0.0,92,0.00,,---,0.07,VWS V13.01,2013-09-02 03:22:00,
2013-09-01 23:27:00,78.7,76.3,30.00,WNW,290,0.0,0.0,92,0.00,,---,0.07,VWS V13.01,2013-09-02 03:27:00,
2013-09-01 23:32:00,78.9,76.6,30.00,WNW,290,0.0,0.0,93,0.00,,---,0.07,VWS V13.01,2013-09-02 03:32:00,
2013-09-01 23:37:00,78.7,76.5,30.00,WNW,290,0.0,0.0,93,0.00,,---,0.07,VWS V13.01,2013-09-02 03:37:00,
2013-09-01 23:42:00,78.7,76.5,30.00,WNW,290,0.0,0.0,93,0.00,,---,0.07,VWS V13.01,2013-09-02 03:42:00,
2013-09-01 23:47:00,78.7,76.5,30.00,WNW,290,0.0,0.0,93,0.00,,---,0.07,VWS V13.01,2013-09-02 03:47:00,
2013-09-01 23:52:00,78.7,76.5,30.00,WNW,290,0.0,0.0,93,0.00,,---,0.07,VWS V13.01,2013-09-02 03:52:00,
2013-09-01 23:57:00,78.5,76.3,30.00,WNW,290,0.0,0.0,93,0.00,,---,0.07,VWS V13.01,2013-09-02 03:57:00,